Time;durP1;ratioP1;P1;durP2;ratioP2;P2;SDS_P1;SDS_P2;PMS_P1;PMS_P2;Temp;Humidity;BMP_temperature;BMP_pressure;BME280_temperature;BME280_humidity;BME280_pressure;Samples;Min_cycle;Max_cycle;Signal;HPM_P1;HPM_P2
2021/04/01 00:01:06;;;;;;;9.88;5.22;;;;;;;;;;5054561;28;20017;-56
2021/04/01 00:03:32;;;;;;;10.02;5.40;;;;;;;;;;5054335;28;20103;-58
2021/04/01 00:05:58;;;;;;;10.38;5.78;;;;;;;;;;5054602;28;20375;-57
2021/04/01 00:08:24;;;;;;;10.50;5.65;;;;;;;;;;5054279;28;20029;-58
2021/04/01 00:10:50;;;;;;;8.18;5.20;;;;;;;;;;5054243;28;20040;-57
2021/04/01 00:13:17;;;;;;;8.70;4.93;;;;;;;;;;5054298;28;20021;-57
2021/04/01 00:15:43;;;;;;;9.30;5.43;;;;;;;;;;5054086;28;20021;-57
2021/04/01 00:18:10;;;;;;;9.63;4.38;;;;;;;;;;5035888;28;20377;-54
2021/04/01 00:20:36;;;;;;;12.35;5.05;;;;;;;;;;5053925;28;20036;-60
2021/04/01 00:23:02;;;;;;;8.63;4.68;;;;;;;;;;5054051;28;20052;-57
2021/04/01 00:25:28;;;;;;;7.95;4.95;;;;;;;;;;5053694;28;20056;-57
2021/04/01 00:27:54;;;;;;;8.38;4.55;;;;;;;;;;5054101;28;20095;-58
2021/04/01 00:30:21;;;;;;;8.23;4.97;;;;;;;;;;5053548;28;20112;-58
2021/04/01 00:32:47;;;;;;;8.38;5.28;;;;;;;;;;5053758;28;20143;-56
2021/04/01 00:35:13;;;;;;;7.05;4.70;;;;;;;;;;5053553;28;20595;-56
2021/04/01 00:37:39;;;;;;;8.45;4.60;;;;;;;;;;5053530;28;20057;-56
2021/04/01 00:40:07;;;;;;;10.80;5.00;;;;;;;;;;5054497;28;20029;-58
2021/04/01 00:42:33;;;;;;;13.10;5.05;;;;;;;;;;5036261;28;20021;-58
2021/04/01 00:45:04;;;;;;;9.07;4.85;;;;;;;;;;5053372;28;20040;-57
2021/04/01 00:47:35;;;;;;;9.23;5.28;;;;;;;;;;5053288;28;20025;-58
2021/04/01 00:50:01;;;;;;;10.07;4.82;;;;;;;;;;5053514;28;20060;-59
2021/04/01 00:52:27;;;;;;;10.98;6.00;;;;;;;;;;5053344;28;20017;-58
2021/04/01 00:54:53;;;;;;;9.43;5.55;;;;;;;;;;5053238;28;20060;-58
2021/04/01 00:57:19;;;;;;;11.05;6.15;;;;;;;;;;5052725;28;20140;-56
2021/04/01 00:59:45;;;;;;;10.18;5.25;;;;;;;;;;5053817;28;20016;-58
2021/04/01 01:02:12;;;;;;;9.07;5.18;;;;;;;;;;5055901;28;20025;-58
2021/04/01 01:04:38;;;;;;;8.05;4.55;;;;;;;;;;5054824;28;20147;-59
2021/04/01 01:07:04;;;;;;;11.30;6.10;;;;;;;;;;5053234;28;20024;-57
2021/04/01 01:09:30;;;;;;;11.95;5.78;;;;;;;;;;5053188;28;20472;-58
2021/04/01 01:11:56;;;;;;;11.77;5.57;;;;;;;;;;5052843;28;20028;-57
2021/04/01 01:14:23;;;;;;;13.07;5.60;;;;;;;;;;5035020;28;20032;-58
2021/04/01 01:16:49;;;;;;;9.13;5.20;;;;;;;;;;5053147;28;20025;-58
2021/04/01 01:19:16;;;;;;;9.15;5.28;;;;;;;;;;5052805;28;20025;-57
2021/04/01 01:21:42;;;;;;;10.43;5.20;;;;;;;;;;5052721;28;20033;-57
2021/04/01 01:24:13;;;;;;;9.63;4.97;;;;;;;;;;5052589;28;20037;-58
2021/04/01 01:26:40;;;;;;;11.73;5.72;;;;;;;;;;5052588;28;20075;-57
2021/04/01 01:29:07;;;;;;;12.40;5.47;;;;;;;;;;5052832;28;20459;-58
2021/04/01 01:31:33;;;;;;;9.30;5.25;;;;;;;;;;5052642;28;20028;-57
2021/04/01 01:34:00;;;;;;;10.15;5.80;;;;;;;;;;5052444;28;20112;-58
2021/04/01 01:36:26;;;;;;;11.65;5.95;;;;;;;;;;5052536;28;20027;-58
2021/04/01 01:38:52;;;;;;;9.77;5.57;;;;;;;;;;5052445;28;20056;-57
2021/04/01 01:41:18;;;;;;;9.85;5.78;;;;;;;;;;5052192;28;20041;-57
2021/04/01 01:43:45;;;;;;;7.85;4.55;;;;;;;;;;5051785;28;20043;-57
2021/04/01 01:46:11;;;;;;;10.25;4.95;;;;;;;;;;5286025;22;20061;-56
2021/04/01 01:48:38;;;;;;;8.43;5.05;;;;;;;;;;5012004;28;20022;-57
2021/04/01 01:51:04;;;;;;;8.70;4.85;;;;;;;;;;5011941;28;20072;-57
2021/04/01 01:53:30;;;;;;;7.40;4.28;;;;;;;;;;5011936;28;20101;-58
2021/04/01 01:55:56;;;;;;;8.00;4.00;;;;;;;;;;5011918;28;20061;-58
2021/04/01 01:58:22;;;;;;;8.13;4.88;;;;;;;;;;5011924;28;20025;-57
2021/04/01 02:00:54;;;;;;;9.40;4.82;;;;;;;;;;5011868;28;20041;-58
2021/04/01 02:03:23;;;;;;;9.07;4.82;;;;;;;;;;5011882;28;20037;-56
2021/04/01 02:05:49;;;;;;;10.00;5.25;;;;;;;;;;5011967;28;20076;-58
2021/04/01 02:08:15;;;;;;;8.15;4.82;;;;;;;;;;5011796;28;20089;-58
2021/04/01 02:10:42;;;;;;;9.25;4.85;;;;;;;;;;5011759;28;20033;-58
2021/04/01 02:13:09;;;;;;;8.82;4.88;;;;;;;;;;5011731;28;20030;-58
2021/04/01 02:15:40;;;;;;;7.70;4.47;;;;;;;;;;5011588;28;20030;-55
2021/04/01 02:18:07;;;;;;;8.23;4.85;;;;;;;;;;5011677;28;20123;-58
2021/04/01 02:20:41;;;;;;;9.40;4.75;;;;;;;;;;5011716;28;20373;-58
2021/04/01 02:23:12;;;;;;;9.00;5.13;;;;;;;;;;5011606;28;20061;-58
2021/04/01 02:25:38;;;;;;;13.25;6.25;;;;;;;;;;5011645;28;20030;-58
2021/04/01 02:28:05;;;;;;;10.52;5.82;;;;;;;;;;5011587;28;20408;-55
2021/04/01 02:30:31;;;;;;;9.85;5.03;;;;;;;;;;5011612;28;20034;-58
2021/04/01 02:32:57;;;;;;;10.02;5.88;;;;;;;;;;5011586;28;20076;-57
2021/04/01 02:35:23;;;;;;;11.70;6.18;;;;;;;;;;5011562;28;20045;-56
2021/04/01 02:37:50;;;;;;;12.07;6.13;;;;;;;;;;5011661;28;20061;-58
2021/04/01 02:40:16;;;;;;;9.38;5.60;;;;;;;;;;5011767;28;20041;-57
2021/04/01 02:42:42;;;;;;;12.68;6.30;;;;;;;;;;5011755;28;20432;-55
2021/04/01 02:45:10;;;;;;;13.20;6.65;;;;;;;;;;5011386;28;20034;-57
2021/04/01 02:47:36;;;;;;;14.35;8.57;;;;;;;;;;5011034;28;20053;-56
2021/04/01 02:50:03;;;;;;;14.00;7.32;;;;;;;;;;5011386;28;20022;-55
2021/04/01 02:52:29;;;;;;;16.02;8.73;;;;;;;;;;5011390;28;20112;-56
2021/04/01 02:54:55;;;;;;;37.17;17.27;;;;;;;;;;5012510;28;20030;-57
2021/04/01 02:57:21;;;;;;;42.28;16.95;;;;;;;;;;5015223;28;20412;-55
2021/04/01 02:59:47;;;;;;;43.33;18.23;;;;;;;;;;5015013;28;20056;-57
2021/04/01 03:02:14;;;;;;;34.78;15.77;;;;;;;;;;5014832;28;20025;-56
2021/04/01 03:04:41;;;;;;;31.55;15.05;;;;;;;;;;5014818;28;20038;-54
2021/04/01 03:07:07;;;;;;;26.52;14.23;;;;;;;;;;5014846;28;20022;-56
2021/04/01 03:09:34;;;;;;;16.02;9.35;;;;;;;;;;5014844;28;20029;-56
2021/04/01 03:12:00;;;;;;;16.20;7.65;;;;;;;;;;5015014;28;20061;-58
2021/04/01 03:14:27;;;;;;;9.13;5.20;;;;;;;;;;5014707;28;20060;-57
2021/04/01 03:16:53;;;;;;;12.15;5.03;;;;;;;;;;5014744;28;20543;-57
2021/04/01 03:19:19;;;;;;;12.18;5.80;;;;;;;;;;5014902;28;20033;-58
2021/04/01 03:21:46;;;;;;;9.15;5.32;;;;;;;;;;5014612;28;20105;-56
2021/04/01 03:24:12;;;;;;;11.20;5.30;;;;;;;;;;5014499;28;20592;-57
2021/04/01 03:26:38;;;;;;;11.10;6.20;;;;;;;;;;5014491;28;20033;-57
2021/04/01 03:29:05;;;;;;;8.45;4.82;;;;;;;;;;5014445;28;20037;-57
2021/04/01 03:31:31;;;;;;;9.55;5.43;;;;;;;;;;4996786;28;20029;-57
2021/04/01 03:33:57;;;;;;;10.65;5.30;;;;;;;;;;5014644;28;20021;-56
2021/04/01 03:36:23;;;;;;;15.35;8.23;;;;;;;;;;5014775;28;20025;-57
2021/04/01 03:38:50;;;;;;;15.50;8.50;;;;;;;;;;5014367;28;20022;-57
2021/04/01 03:41:16;;;;;;;15.30;7.47;;;;;;;;;;5014256;28;20030;-55
2021/04/01 03:43:42;;;;;;;18.13;8.73;;;;;;;;;;5014196;28;20041;-58
2021/04/01 03:46:10;;;;;;;15.30;8.07;;;;;;;;;;5014011;28;20062;-58
2021/04/01 03:48:36;;;;;;;14.20;7.97;;;;;;;;;;5014022;28;20041;-55
2021/04/01 03:51:02;;;;;;;16.52;8.45;;;;;;;;;;5014140;28;20560;-56
2021/04/01 03:53:28;;;;;;;15.00;8.00;;;;;;;;;;5014006;28;20021;-51
2021/04/01 03:55:54;;;;;;;15.02;7.20;;;;;;;;;;5014151;28;20030;-58
2021/04/01 04:03:39;;;;;;;9.95;6.40;;;;;;;;;;5013632;28;21133;-58
2021/04/01 04:11:36;;;;;;;15.18;6.10;;;;;;;;;;5013751;28;20080;-53
2021/04/01 04:14:13;;;;;;;11.82;5.55;;;;;;;;;;5013690;28;20021;-59
2021/04/01 04:16:41;;;;;;;12.68;5.70;;;;;;;;;;5013353;28;20120;-57
2021/04/01 04:19:07;;;;;;;13.10;5.68;;;;;;;;;;5013550;28;20030;-57
2021/04/01 04:21:33;;;;;;;12.35;5.78;;;;;;;;;;5013453;28;20022;-57
2021/04/01 04:24:01;;;;;;;11.73;5.22;;;;;;;;;;5013336;28;20493;-55
2021/04/01 04:26:27;;;;;;;9.38;5.03;;;;;;;;;;5013600;28;20026;-54
2021/04/01 04:28:53;;;;;;;7.55;5.00;;;;;;;;;;5013509;28;20400;-55
2021/04/01 04:31:19;;;;;;;11.35;6.13;;;;;;;;;;5013352;28;20026;-52
2021/04/01 04:33:46;;;;;;;9.75;5.40;;;;;;;;;;5013151;28;20030;-57
2021/04/01 04:36:12;;;;;;;11.68;5.90;;;;;;;;;;5013481;28;20456;-58
2021/04/01 04:38:38;;;;;;;10.77;5.18;;;;;;;;;;5013210;28;20022;-54
2021/04/01 04:41:04;;;;;;;11.45;5.57;;;;;;;;;;5013146;28;20424;-60
2021/04/01 04:43:31;;;;;;;13.32;5.03;;;;;;;;;;5012992;28;20037;-54
2021/04/01 04:45:58;;;;;;;9.90;4.93;;;;;;;;;;5013093;28;20056;-58
2021/04/01 04:48:24;;;;;;;10.60;5.90;;;;;;;;;;5013017;28;20029;-60
2021/04/01 04:50:50;;;;;;;11.80;5.80;;;;;;;;;;5012951;28;20026;-57
2021/04/01 04:53:17;;;;;;;14.32;6.68;;;;;;;;;;5012983;28;20026;-57
2021/04/01 04:56:27;;;;;;;17.75;8.73;;;;;;;;;;5013071;28;20030;-57
2021/04/01 05:06:39;;;;;;;13.77;6.10;;;;;;;;;;5012991;28;20044;-57
2021/04/01 05:09:03;;;;;;;12.07;6.00;;;;;;;;;;5012071;28;20037;-56
2021/04/01 05:11:32;;;;;;;10.68;6.03;;;;;;;;;;5012657;28;20026;-58
2021/04/01 05:13:58;;;;;;;9.55;5.80;;;;;;;;;;5012918;28;20041;-55
2021/04/01 05:16:25;;;;;;;9.50;5.82;;;;;;;;;;5012703;28;20049;-58
2021/04/01 05:18:51;;;;;;;11.30;5.32;;;;;;;;;;5011815;28;20060;-54
2021/04/01 05:21:19;;;;;;;10.65;5.63;;;;;;;;;;5012379;28;20065;-51
2021/04/01 05:23:49;;;;;;;10.75;6.43;;;;;;;;;;5012326;28;20484;-55
2021/04/01 05:28:44;;;;;;;12.02;6.53;;;;;;;;;;5012326;28;20034;-55
2021/04/01 05:31:12;;;;;;;12.15;5.78;;;;;;;;;;5012317;28;20041;-56
2021/04/01 05:33:42;;;;;;;10.07;5.22;;;;;;;;;;5012084;28;20033;-54
2021/04/01 05:36:10;;;;;;;12.13;5.43;;;;;;;;;;5011853;28;20501;-58
2021/04/01 05:38:38;;;;;;;10.18;5.40;;;;;;;;;;5012453;28;20469;-56
2021/04/01 05:41:04;;;;;;;9.40;6.03;;;;;;;;;;5012598;28;20580;-58
2021/04/01 05:43:35;;;;;;;11.82;5.85;;;;;;;;;;5013121;28;20037;-58
2021/04/01 05:48:53;;;;;;;12.27;7.00;;;;;;;;;;5012082;28;20042;-57
2021/04/01 05:51:38;;;;;;;15.30;7.00;;;;;;;;;;5012871;28;20018;-57
2021/04/01 06:02:40;;;;;;;10.40;6.82;;;;;;;;;;5011238;28;20148;-54
2021/04/01 06:05:09;;;;;;;10.40;6.32;;;;;;;;;;5011386;28;20464;-57
2021/04/01 06:07:39;;;;;;;11.52;5.85;;;;;;;;;;5007250;28;20034;-58
2021/04/01 06:10:07;;;;;;;11.10;5.78;;;;;;;;;;5012241;28;20081;-58
2021/04/01 06:12:34;;;;;;;9.45;5.50;;;;;;;;;;5012182;28;20084;-58
2021/04/01 06:15:16;;;;;;;9.63;5.30;;;;;;;;;;5012475;28;20049;-60
2021/04/01 06:17:48;;;;;;;9.45;5.65;;;;;;;;;;5012027;28;20030;-55
2021/04/01 06:20:15;;;;;;;13.73;6.57;;;;;;;;;;5001453;28;20026;-57
2021/04/01 06:22:42;;;;;;;11.45;6.43;;;;;;;;;;4999889;28;20106;-56
2021/04/01 06:25:12;;;;;;;11.82;6.30;;;;;;;;;;5012104;28;20036;-56
2021/04/01 06:27:47;;;;;;;8.88;5.20;;;;;;;;;;5012203;28;20362;-53
2021/04/01 06:30:21;;;;;;;13.70;6.95;;;;;;;;;;4999061;28;20401;-57
2021/04/01 06:33:03;;;;;;;11.20;6.43;;;;;;;;;;5016126;28;20022;-60
2021/04/01 06:35:47;;;;;;;13.35;6.18;;;;;;;;;;5016239;28;20417;-59
2021/04/01 06:40:45;;;;;;;14.10;7.35;;;;;;;;;;5016098;28;20535;-53
2021/04/01 06:43:21;;;;;;;10.38;5.78;;;;;;;;;;5015483;28;20030;-60
2021/04/01 06:45:57;;;;;;;9.57;5.20;;;;;;;;;;5015416;28;20378;-59
2021/04/01 06:48:27;;;;;;;10.05;6.25;;;;;;;;;;5015142;28;20042;-58
2021/04/01 06:51:06;;;;;;;11.02;6.13;;;;;;;;;;5015703;28;20049;-59
2021/04/01 06:56:29;;;;;;;;;;;;;;;;;;5016166;28;20040;-59
2021/04/01 06:59:07;;;;;;;8.73;5.07;;;;;;;;;;5014290;28;19909;-55
2021/04/01 07:01:39;;;;;;;9.73;5.53;;;;;;;;;;5012657;28;20131;-47
2021/04/01 07:04:07;;;;;;;11.23;5.80;;;;;;;;;;5014123;28;20029;-56
2021/04/01 07:06:39;;;;;;;11.50;5.97;;;;;;;;;;5015071;28;20069;-57
2021/04/01 07:12:13;;;;;;;13.63;6.63;;;;;;;;;;5003054;28;20033;-58
2021/04/01 07:14:42;;;;;;;13.52;7.10;;;;;;;;;;5012148;28;20022;-60
2021/04/01 07:17:10;;;;;;;13.63;6.75;;;;;;;;;;5011915;28;20070;-57
2021/04/01 07:19:52;;;;;;;14.25;6.90;;;;;;;;;;5016751;28;20022;-56
2021/04/01 07:46:52;;;;;;;9.32;5.40;;;;;;;;;;5014236;28;21025;-51
2021/04/01 07:49:22;;;;;;;9.70;5.20;;;;;;;;;;5014070;28;20034;-58
2021/04/01 07:51:59;;;;;;;9.38;5.18;;;;;;;;;;4996002;28;20026;-49
2021/04/01 07:54:33;;;;;;;15.55;5.88;;;;;;;;;;5013944;28;20037;-58
2021/04/01 07:57:15;;;;;;;9.98;4.90;;;;;;;;;;5013622;28;20417;-59
2021/04/01 07:59:55;;;;;;;13.32;6.30;;;;;;;;;;5012169;28;20030;-57
2021/04/01 08:04:48;;;;;;;12.18;5.82;;;;;;;;;;5013877;28;20041;-56
2021/04/01 08:07:16;;;;;;;13.05;5.30;;;;;;;;;;5014610;28;20107;-57
2021/04/01 08:09:48;;;;;;;10.50;5.38;;;;;;;;;;5013954;28;20026;-56
2021/04/01 08:12:17;;;;;;;8.48;4.55;;;;;;;;;;5013939;28;20080;-51
2021/04/01 08:14:46;;;;;;;7.85;4.45;;;;;;;;;;5013577;28;20084;-51
2021/04/01 08:17:21;;;;;;;8.10;4.20;;;;;;;;;;5013387;28;20053;-55
2021/04/01 08:19:50;;;;;;;8.60;4.57;;;;;;;;;;5014226;28;20032;-53
2021/04/01 08:22:22;;;;;;;13.45;4.63;;;;;;;;;;5014052;28;20025;-59
2021/04/01 08:24:56;;;;;;;7.45;4.13;;;;;;;;;;5014162;28;20037;-58
2021/04/01 08:27:37;;;;;;;7.68;4.38;;;;;;;;;;5012913;28;20029;-56
2021/04/01 08:35:35;;;;;;;7.35;4.28;;;;;;;;;;5012817;28;20068;-58
2021/04/01 08:40:29;;;;;;;8.18;4.18;;;;;;;;;;5011220;28;20064;-56
2021/04/01 08:42:55;;;;;;;9.57;4.45;;;;;;;;;;5013571;28;20030;-57
2021/04/01 08:45:32;;;;;;;8.52;4.25;;;;;;;;;;5012473;28;20030;-58
2021/04/01 08:47:58;;;;;;;8.80;4.25;;;;;;;;;;5008242;28;20301;-55
2021/04/01 08:50:45;;;;;;;8.38;4.07;;;;;;;;;;5033379;28;20481;-58
2021/04/01 08:53:30;;;;;;;7.47;4.22;;;;;;;;;;5032780;28;20056;-54
2021/04/01 08:56:00;;;;;;;8.75;4.03;;;;;;;;;;5033122;28;20466;-54
2021/04/01 08:58:32;;;;;;;8.55;4.30;;;;;;;;;;5016764;28;20096;-57
2021/04/01 09:01:13;;;;;;;6.38;3.88;;;;;;;;;;5012692;28;20516;-58
2021/04/01 09:03:40;;;;;;;7.32;4.25;;;;;;;;;;5012223;28;20036;-59
2021/04/01 09:06:06;;;;;;;15.82;7.10;;;;;;;;;;5012554;28;20022;-59
2021/04/01 09:08:34;;;;;;;15.52;6.75;;;;;;;;;;5012740;28;20109;-58
2021/04/01 09:11:01;;;;;;;14.07;6.47;;;;;;;;;;5012365;28;20033;-60
2021/04/01 09:13:32;;;;;;;13.07;6.78;;;;;;;;;;5011387;28;20063;-60
2021/04/01 09:18:32;;;;;;;10.27;5.28;;;;;;;;;;5012398;28;20125;-60
2021/04/01 09:20:59;;;;;;;6.82;4.28;;;;;;;;;;5012435;28;20040;-55
2021/04/01 09:23:38;;;;;;;6.70;3.47;;;;;;;;;;5012246;28;20018;-59
2021/04/01 09:26:08;;;;;;;9.02;3.40;;;;;;;;;;5012264;28;20029;-59
2021/04/01 09:28:39;;;;;;;6.32;3.67;;;;;;;;;;5012921;28;20021;-59
2021/04/01 09:31:06;;;;;;;7.00;3.50;;;;;;;;;;5012667;28;20412;-58
2021/04/01 09:33:33;;;;;;;6.55;3.80;;;;;;;;;;5011807;28;20057;-60
2021/04/01 09:36:20;;;;;;;6.25;3.78;;;;;;;;;;5012077;28;20075;-59
2021/04/01 09:38:54;;;;;;;9.38;4.28;;;;;;;;;;5012330;28;20410;-47
2021/04/01 09:41:30;;;;;;;8.00;3.90;;;;;;;;;;5010954;28;20060;-61
2021/04/01 09:43:57;;;;;;;9.38;3.72;;;;;;;;;;5012297;28;20365;-56
2021/04/01 09:46:23;;;;;;;6.13;3.63;;;;;;;;;;5011831;28;20112;-56
2021/04/01 09:48:54;;;;;;;5.63;3.47;;;;;;;;;;5012672;28;20026;-49
2021/04/01 09:51:22;;;;;;;6.72;4.05;;;;;;;;;;5007342;28;20026;-59
2021/04/01 09:53:50;;;;;;;7.00;4.10;;;;;;;;;;5012778;28;20021;-57
2021/04/01 09:56:42;;;;;;;8.13;3.65;;;;;;;;;;5012886;28;20105;-54
2021/04/01 09:59:20;;;;;;;6.25;3.58;;;;;;;;;;5009137;28;20392;-58
2021/04/01 10:01:47;;;;;;;6.60;3.38;;;;;;;;;;5012617;28;20533;-60
2021/04/01 10:04:13;;;;;;;7.93;3.80;;;;;;;;;;5012274;28;20038;-58
2021/04/01 10:06:43;;;;;;;15.30;4.30;;;;;;;;;;5012629;28;20535;-46
2021/04/01 10:09:29;;;;;;;8.38;4.18;;;;;;;;;;5012673;28;20464;-59
2021/04/01 10:12:06;;;;;;;7.70;4.25;;;;;;;;;;5012716;28;20406;-59
2021/04/01 10:14:32;;;;;;;7.00;3.60;;;;;;;;;;5012457;28;20054;-54
2021/04/01 10:17:00;;;;;;;7.78;3.97;;;;;;;;;;5012443;28;20038;-59
2021/04/01 10:19:28;;;;;;;6.38;3.90;;;;;;;;;;5012525;28;20026;-58
2021/04/01 10:21:55;;;;;;;7.55;4.07;;;;;;;;;;5012471;28;20161;-58
2021/04/01 10:24:22;;;;;;;5.95;3.60;;;;;;;;;;5012293;28;20033;-56
2021/04/01 10:26:53;;;;;;;8.68;3.92;;;;;;;;;;5012316;28;20022;-54
2021/04/01 10:29:38;;;;;;;6.13;3.95;;;;;;;;;;5012103;28;20501;-61
2021/04/01 10:32:06;;;;;;;5.60;3.25;;;;;;;;;;5012319;28;20446;-62
2021/04/01 10:34:36;;;;;;;6.22;3.50;;;;;;;;;;5012490;28;20026;-57
2021/04/01 10:37:13;;;;;;;6.60;4.30;;;;;;;;;;5012351;28;20033;-57
2021/04/01 10:39:40;;;;;;;7.72;4.53;;;;;;;;;;5012303;28;20481;-59
2021/04/01 10:42:07;;;;;;;6.25;3.63;;;;;;;;;;5012318;28;20028;-59
2021/04/01 10:44:33;;;;;;;8.57;3.88;;;;;;;;;;5012056;28;20109;-61
2021/04/01 10:47:00;;;;;;;6.38;3.60;;;;;;;;;;5012034;28;20458;-58
2021/04/01 10:49:29;;;;;;;6.55;4.05;;;;;;;;;;5012078;28;20100;-61
2021/04/01 10:51:56;;;;;;;6.13;3.65;;;;;;;;;;5012106;28;20022;-61
2021/04/01 10:54:23;;;;;;;6.38;3.90;;;;;;;;;;5012190;28;20069;-59
2021/04/01 10:56:52;;;;;;;6.45;3.40;;;;;;;;;;5011408;28;20033;-61
2021/04/01 10:59:30;;;;;;;8.82;3.80;;;;;;;;;;5011347;28;20105;-64
2021/04/01 11:01:57;;;;;;;5.80;3.42;;;;;;;;;;5011813;28;20393;-62
2021/04/01 11:04:24;;;;;;;5.65;3.70;;;;;;;;;;5012035;28;20034;-58
2021/04/01 11:06:51;;;;;;;6.00;3.50;;;;;;;;;;4994341;28;20125;-58
2021/04/01 11:09:19;;;;;;;6.90;3.50;;;;;;;;;;5011984;28;20022;-59
2021/04/01 11:14:17;;;;;;;10.40;4.57;;;;;;;;;;5012297;28;20041;-58
2021/04/01 11:16:45;;;;;;;7.57;4.22;;;;;;;;;;5014302;28;20033;-59
2021/04/01 11:19:12;;;;;;;8.50;4.00;;;;;;;;;;5015664;28;20022;-59
2021/04/01 11:21:39;;;;;;;8.80;4.10;;;;;;;;;;5015454;28;20456;-60
2021/04/01 11:24:05;;;;;;;7.68;4.18;;;;;;;;;;5015375;28;20453;-62
2021/04/01 11:26:31;;;;;;;7.57;4.47;;;;;;;;;;5015377;28;20121;-55
2021/04/01 11:28:57;;;;;;;7.38;3.50;;;;;;;;;;5015566;28;20373;-55
2021/04/01 11:31:23;;;;;;;5.50;3.03;;;;;;;;;;5015316;28;20030;-60
2021/04/01 11:33:51;;;;;;;5.30;3.00;;;;;;;;;;5015368;28;21090;-59
2021/04/01 11:36:19;;;;;;;4.78;2.70;;;;;;;;;;5014902;28;20511;-61
2021/04/01 11:38:53;;;;;;;6.63;3.90;;;;;;;;;;5015180;28;20053;-45
2021/04/01 11:41:20;;;;;;;8.57;3.88;;;;;;;;;;5015035;28;20041;-60
2021/04/01 11:43:53;;;;;;;8.40;3.15;;;;;;;;;;5015181;28;20034;-61
2021/04/01 11:46:19;;;;;;;;;;;;;;;;;;5015399;28;20041;-61
2021/04/01 11:48:46;;;;;;;4.97;3.03;;;;;;;;;;5015161;28;19913;-53
2021/04/01 11:51:17;;;;;;;7.20;3.40;;;;;;;;;;5014920;28;20018;-64
2021/04/01 11:53:44;;;;;;;7.27;3.23;;;;;;;;;;5014929;28;20104;-61
2021/04/01 11:56:10;;;;;;;6.45;3.53;;;;;;;;;;5015099;28;20026;-64
2021/04/01 11:58:36;;;;;;;9.23;3.63;;;;;;;;;;5015069;28;20081;-67
2021/04/01 12:01:04;;;;;;;8.15;3.28;;;;;;;;;;5014681;28;20041;-60
2021/04/01 12:03:59;;;;;;;5.45;3.05;;;;;;;;;;5014956;28;20029;-54
2021/04/01 12:06:18;;;;;;;5.85;3.00;;;;;;;;;;5014097;28;20030;-60
2021/04/01 12:08:45;;;;;;;5.63;3.40;;;;;;;;;;5014923;28;20030;-62
2021/04/01 12:11:11;;;;;;;6.88;3.50;;;;;;;;;;5014691;28;20160;-59
2021/04/01 12:13:37;;;;;;;6.32;3.30;;;;;;;;;;5014803;28;20350;-54
2021/04/01 12:16:03;;;;;;;5.28;2.90;;;;;;;;;;5014366;28;20029;-62
2021/04/01 12:18:48;;;;;;;6.03;2.80;;;;;;;;;;5014346;28;20029;-59
2021/04/01 12:21:15;;;;;;;7.28;3.63;;;;;;;;;;5014414;28;20033;-60
2021/04/01 12:23:52;;;;;;;7.68;2.80;;;;;;;;;;5014075;28;20026;-61
2021/04/01 12:26:19;;;;;;;8.85;3.50;;;;;;;;;;5013743;28;20485;-55
2021/04/01 12:28:58;;;;;;;5.88;3.00;;;;;;;;;;5014245;28;20026;-62
2021/04/01 12:31:36;;;;;;;7.30;3.28;;;;;;;;;;5014168;28;20025;-55
2021/04/01 12:34:03;;;;;;;6.07;2.90;;;;;;;;;;5014349;28;20029;-61
2021/04/01 12:36:33;;;;;;;6.55;3.15;;;;;;;;;;5014239;28;20034;-61
2021/04/01 12:38:59;;;;;;;7.18;3.30;;;;;;;;;;5014018;28;20026;-63
2021/04/01 12:41:30;;;;;;;6.68;3.28;;;;;;;;;;5014474;28;20029;-63
2021/04/01 12:43:56;;;;;;;5.70;2.90;;;;;;;;;;5014022;28;20029;-61
2021/04/01 12:46:39;;;;;;;8.32;2.90;;;;;;;;;;5013787;28;20046;-61
2021/04/01 12:49:05;;;;;;;7.03;3.15;;;;;;;;;;5013786;28;20018;-60
2021/04/01 12:51:41;;;;;;;6.25;4.00;;;;;;;;;;5013464;28;20116;-59
2021/04/01 12:54:12;;;;;;;6.25;2.80;;;;;;;;;;5013683;28;20037;-55
2021/04/01 12:56:44;;;;;;;5.33;2.87;;;;;;;;;;5013540;28;20119;-63
2021/04/01 12:59:17;;;;;;;4.93;2.83;;;;;;;;;;5013628;28;20038;-62
2021/04/01 13:01:50;;;;;;;6.60;3.60;;;;;;;;;;5013665;28;20048;-55
2021/04/01 13:04:19;;;;;;;5.05;3.20;;;;;;;;;;5013732;28;20026;-59
2021/04/01 13:11:56;;;;;;;6.20;2.83;;;;;;;;;;5013427;28;20445;-54
2021/04/01 13:14:22;;;;;;;5.07;2.60;;;;;;;;;;5013218;28;20038;-61
2021/04/01 13:16:49;;;;;;;7.15;3.50;;;;;;;;;;5013459;28;20036;-63
2021/04/01 13:19:15;;;;;;;6.32;3.35;;;;;;;;;;5013374;28;20030;-66
2021/04/01 13:24:27;;;;;;;5.68;3.17;;;;;;;;;;5013134;28;20108;-59
2021/04/01 13:26:53;;;;;;;5.78;2.85;;;;;;;;;;5013207;28;20500;-62
2021/04/01 13:29:23;;;;;;;6.22;3.05;;;;;;;;;;5013221;28;20057;-62
2021/04/01 13:31:53;;;;;;;7.43;3.40;;;;;;;;;;5013304;28;20112;-63
2021/04/01 13:37:02;;;;;;;6.53;2.60;;;;;;;;;;5013015;28;20041;-63
2021/04/01 13:39:40;;;;;;;6.40;2.80;;;;;;;;;;5012081;28;20018;-60
2021/04/01 13:42:19;;;;;;;5.30;2.70;;;;;;;;;;5012961;28;20021;-62
2021/04/01 13:44:57;;;;;;;5.43;3.15;;;;;;;;;;5013097;28;20353;-66
2021/04/01 13:47:24;;;;;;;4.95;2.70;;;;;;;;;;5012464;28;20424;-61
2021/04/01 13:49:54;;;;;;;4.75;2.80;;;;;;;;;;5012975;28;20029;-52
2021/04/01 13:52:28;;;;;;;12.65;2.70;;;;;;;;;;5012695;28;20041;-60
2021/04/01 14:11:41;;;;;;;6.53;3.50;;;;;;;;;;5007035;28;20038;-62
2021/04/01 14:14:07;;;;;;;7.72;3.45;;;;;;;;;;5012376;28;20080;-60
2021/04/01 14:16:37;;;;;;;8.70;2.30;;;;;;;;;;5012716;28;20339;-52
2021/04/01 14:19:06;;;;;;;14.02;2.83;;;;;;;;;;5012771;28;20033;-61
2021/04/01 14:21:33;;;;;;;5.72;2.47;;;;;;;;;;5012450;28;20054;-61
2021/04/01 14:24:00;;;;;;;5.63;2.60;;;;;;;;;;5012222;28;20025;-63
2021/04/01 14:29:01;;;;;;;5.30;2.40;;;;;;;;;;5012473;28;20346;-57
2021/04/01 14:31:27;;;;;;;4.70;2.22;;;;;;;;;;5012616;28;20045;-64
2021/04/01 14:33:53;;;;;;;4.72;2.65;;;;;;;;;;5012310;28;20489;-64
2021/04/01 14:36:21;;;;;;;4.28;2.30;;;;;;;;;;5012674;28;20540;-62
2021/04/01 14:38:47;;;;;;;4.15;2.40;;;;;;;;;;5012424;28;20064;-61
2021/04/01 14:43:57;;;;;;;4.55;2.92;;;;;;;;;;5012392;28;20034;-62
2021/04/01 14:46:24;;;;;;;6.22;3.20;;;;;;;;;;4994579;28;20493;-62
2021/04/01 14:48:50;;;;;;;8.05;3.33;;;;;;;;;;5012476;28;20109;-57
2021/04/01 14:51:17;;;;;;;6.57;3.42;;;;;;;;;;5015757;28;20036;-60
2021/04/01 14:53:50;;;;;;;6.85;3.38;;;;;;;;;;5016087;28;20096;-63
2021/04/01 14:56:19;;;;;;;8.95;4.63;;;;;;;;;;5016215;28;20026;-64
2021/04/01 14:58:46;;;;;;;7.53;4.38;;;;;;;;;;5016135;28;20099;-60
2021/04/01 15:01:14;;;;;;;6.90;3.95;;;;;;;;;;5015863;28;20037;-64
2021/04/01 15:03:40;;;;;;;8.82;4.40;;;;;;;;;;5016312;28;20042;-59
2021/04/01 15:06:09;;;;;;;8.60;4.80;;;;;;;;;;5016257;28;20025;-63
2021/04/01 15:08:35;;;;;;;9.60;4.38;;;;;;;;;;5015563;28;20029;-63
2021/04/01 15:11:03;;;;;;;7.22;3.95;;;;;;;;;;5015623;28;20030;-62
2021/04/01 15:13:29;;;;;;;9.20;4.25;;;;;;;;;;5015794;28;20486;-61
2021/04/01 15:15:55;;;;;;;8.68;5.00;;;;;;;;;;5015519;28;20121;-63
2021/04/01 15:18:28;;;;;;;8.93;5.13;;;;;;;;;;5016123;28;20088;-64
2021/04/01 15:20:55;;;;;;;8.00;4.53;;;;;;;;;;5015615;28;20030;-62
2021/04/01 15:23:21;;;;;;;5.95;3.50;;;;;;;;;;5015398;28;20032;-62
2021/04/01 15:25:47;;;;;;;7.47;3.20;;;;;;;;;;5015589;28;20053;-60
2021/04/01 15:28:14;;;;;;;6.10;3.50;;;;;;;;;;5015300;28;20380;-61
2021/04/01 15:30:40;;;;;;;6.57;2.85;;;;;;;;;;5015572;28;20073;-61
2021/04/01 15:33:07;;;;;;;6.72;3.22;;;;;;;;;;5015443;28;20108;-55
2021/04/01 15:35:33;;;;;;;6.05;3.25;;;;;;;;;;4997536;28;20034;-61
2021/04/01 15:37:59;;;;;;;6.28;3.53;;;;;;;;;;5015002;28;20117;-61
2021/04/01 15:40:26;;;;;;;6.35;3.95;;;;;;;;;;5014975;28;20033;-61
2021/04/01 15:42:52;;;;;;;6.25;3.78;;;;;;;;;;5015178;28;20036;-62
2021/04/01 15:45:18;;;;;;;9.88;4.10;;;;;;;;;;5015040;28;20061;-61
2021/04/01 15:47:44;;;;;;;6.38;4.00;;;;;;;;;;4997371;28;20031;-61
2021/04/01 15:50:12;;;;;;;7.22;4.35;;;;;;;;;;5014961;28;20095;-61
2021/04/01 15:52:41;;;;;;;7.75;4.28;;;;;;;;;;5014837;28;20029;-61
2021/04/01 15:55:08;;;;;;;6.70;4.15;;;;;;;;;;5014915;28;20072;-61
2021/04/01 15:57:35;;;;;;;7.47;4.65;;;;;;;;;;5014681;28;20026;-60
2021/04/01 16:00:01;;;;;;;8.43;5.15;;;;;;;;;;5014762;28;20026;-61
2021/04/01 16:02:27;;;;;;;9.35;5.25;;;;;;;;;;4996311;28;20365;-61
2021/04/01 16:04:53;;;;;;;12.85;5.60;;;;;;;;;;5014751;28;20038;-61
2021/04/01 16:07:20;;;;;;;11.27;6.60;;;;;;;;;;5014533;28;20476;-61
2021/04/01 16:09:46;;;;;;;11.43;6.38;;;;;;;;;;5014735;28;20029;-60
2021/04/01 16:12:12;;;;;;;12.18;6.80;;;;;;;;;;5014614;28;20880;-61
2021/04/01 16:14:38;;;;;;;10.35;5.85;;;;;;;;;;5014339;28;20038;-61
2021/04/01 16:17:04;;;;;;;11.73;6.30;;;;;;;;;;5014284;28;20536;-61
2021/04/01 16:19:31;;;;;;;12.25;6.72;;;;;;;;;;5014371;28;20033;-62
2021/04/01 16:21:57;;;;;;;11.10;7.25;;;;;;;;;;5013826;28;20024;-61
2021/04/01 16:24:23;;;;;;;12.63;7.10;;;;;;;;;;5014104;28;20026;-62
2021/04/01 16:26:49;;;;;;;14.82;7.97;;;;;;;;;;5014188;28;20030;-62
2021/04/01 16:29:15;;;;;;;13.00;7.05;;;;;;;;;;5014169;28;20029;-59
2021/04/01 16:31:43;;;;;;;14.48;8.48;;;;;;;;;;5013854;28;20135;-61
2021/04/01 16:34:10;;;;;;;17.50;8.02;;;;;;;;;;5013821;28;20037;-60
2021/04/01 16:36:36;;;;;;;14.57;9.65;;;;;;;;;;5014116;28;20113;-62
2021/04/01 16:39:03;;;;;;;24.52;13.90;;;;;;;;;;5013686;28;20484;-62
2021/04/01 16:41:29;;;;;;;20.08;13.23;;;;;;;;;;5013957;28;20041;-61